Terminal Aerodrome Forecast
Issued by NWS

Home | Current Version | Previous Version | Text Only | Print | Product List | Glossary On
Versions: 1 2 3 4 5 6 7 8 9 10 11 12 13 14
000
FTUS44 KOUN 282129 AAB
TAFPNC
TAF AMD
KPNC 282129Z 2821/2918 11004KT P6SM VCTS SCT050CB
      TEMPO 2821/2822 1SM -TSRA BKN040CB
     FM282200 11004KT P6SM SCT050
      TEMPO 2904/2908 34025G40KT 2SM TSRA OVC030CB=

USA.gov is the U.S. government's official web portal to all federal, state and local government web resources and services.